createdAt,value
2018-02-15T00:02:19.181Z,55.80
2018-02-15T00:04:46.728Z,55.80
2018-02-15T00:07:14.997Z,55.90
2018-02-15T00:09:43.649Z,55.70
2018-02-15T00:12:11.116Z,55.60
2018-02-15T00:14:38.635Z,55.80
2018-02-15T00:17:06.573Z,55.50
2018-02-15T00:19:34.217Z,55.30
2018-02-15T00:22:01.715Z,55.10
2018-02-15T00:24:29.661Z,55.20
2018-02-15T00:26:57.219Z,54.90
2018-02-15T00:29:25.478Z,55.60
2018-02-15T00:31:53.466Z,55.50
2018-02-15T00:34:21.139Z,55.10
2018-02-15T00:36:48.638Z,54.70
2018-02-15T00:39:16.474Z,54.90
2018-02-15T00:41:43.971Z,54.90
2018-02-15T00:44:11.470Z,54.90
2018-02-15T00:46:39.262Z,54.80
2018-02-15T00:49:06.776Z,55.20
2018-02-15T00:51:35.181Z,55.20
2018-02-15T00:54:03.032Z,55.10
2018-02-15T00:56:30.531Z,55.50
2018-02-15T00:58:58.030Z,55.00
2018-02-15T01:01:25.591Z,54.60
2018-02-15T01:03:53.857Z,54.40
2018-02-15T01:06:21.450Z,54.30
2018-02-15T01:08:49.323Z,54.70
2018-02-15T01:11:16.825Z,54.30
2018-02-15T01:13:44.341Z,55.10
2018-02-15T01:16:11.865Z,54.50
2018-02-15T01:18:39.382Z,54.50
2018-02-15T01:21:07.202Z,54.50
2018-02-15T01:23:34.703Z,54.60
2018-02-15T01:26:02.216Z,54.20
2018-02-15T01:28:30.530Z,54.10
2018-02-15T01:30:57.996Z,54.00
2018-02-15T01:33:25.811Z,54.00
2018-02-15T01:35:54.072Z,54.60
2018-02-15T01:38:22.339Z,54.00
2018-02-15T01:40:49.898Z,54.00
2018-02-15T01:43:17.398Z,53.60
2018-02-15T01:45:45.163Z,54.20
2018-02-15T01:48:12.639Z,54.00
2018-02-15T01:50:40.155Z,54.70
2018-02-15T01:53:08.422Z,54.10
2018-02-15T01:55:35.920Z,54.10
2018-02-15T01:58:03.689Z,53.60
2018-02-15T02:00:31.349Z,54.30
2018-02-15T02:02:58.867Z,53.80
2018-02-15T02:05:27.560Z,54.10
2018-02-15T02:07:55.241Z,54.00
2018-02-15T02:10:22.900Z,53.80
2018-02-15T02:12:50.434Z,54.00
2018-02-15T02:15:18.708Z,53.90
2018-02-15T02:17:46.654Z,53.90
2018-02-15T02:20:14.956Z,53.10
2018-02-15T02:22:43.227Z,53.60
2018-02-15T02:25:10.734Z,53.40
2018-02-15T02:27:38.461Z,53.40
2018-02-15T02:30:06.258Z,53.20
2018-02-15T02:32:33.810Z,53.30
2018-02-15T02:35:01.473Z,53.30
2018-02-15T02:37:29.178Z,53.30
2018-02-15T02:39:56.679Z,53.20
2018-02-15T02:42:24.765Z,53.10
2018-02-15T02:44:52.264Z,53.10
2018-02-15T02:47:19.767Z,52.80
2018-02-15T02:49:47.554Z,53.60
2018-02-15T02:52:15.066Z,52.90
2018-02-15T02:54:43.321Z,53.10
2018-02-15T02:57:10.821Z,53.10
2018-02-15T02:59:38.332Z,52.80
2018-02-15T03:02:06.156Z,52.90
2018-02-15T03:04:33.693Z,52.90
2018-02-15T03:07:01.185Z,52.80
2018-02-15T03:09:28.734Z,52.90
2018-02-15T03:11:56.225Z,52.90
2018-02-15T03:14:23.718Z,53.10
2018-02-15T03:16:51.408Z,52.40
2018-02-15T03:19:18.899Z,52.50
2018-02-15T03:21:46.381Z,52.30
2018-02-15T03:24:14.876Z,52.20
2018-02-15T03:26:42.366Z,52.40
2018-02-15T03:29:10.191Z,52.50
2018-02-15T03:31:37.696Z,52.50
2018-02-15T03:34:05.184Z,52.40
2018-02-15T03:36:32.783Z,52.50
2018-02-15T03:39:00.283Z,52.70
2018-02-15T03:41:27.778Z,52.30
2018-02-15T03:43:55.284Z,52.80
2018-02-15T03:46:22.815Z,52.50
2018-02-15T03:48:50.384Z,52.40
2018-02-15T03:51:17.980Z,51.80
2018-02-15T03:53:45.775Z,52.50
2018-02-15T03:56:14.074Z,52.20
2018-02-15T03:58:41.629Z,52.20
2018-02-15T04:01:09.496Z,51.60
2018-02-15T04:03:37.031Z,52.00
2018-02-15T04:06:04.601Z,52.20
2018-02-15T04:08:32.262Z,52.50
2018-02-15T04:10:59.770Z,52.30
2018-02-15T04:13:27.544Z,52.20
2018-02-15T04:15:55.136Z,51.90
2018-02-15T04:18:24.141Z,51.50
2018-02-15T04:20:52.529Z,51.50
2018-02-15T04:23:20.043Z,51.50
2018-02-15T04:25:47.860Z,51.30
2018-02-15T04:28:15.355Z,51.30
2018-02-15T04:30:42.847Z,51.40
2018-02-15T04:33:11.124Z,51.30
2018-02-15T04:35:39.438Z,51.00
2018-02-15T04:38:07.389Z,51.00
2018-02-15T04:40:34.935Z,50.80
2018-02-15T04:43:03.326Z,50.80
2018-02-15T04:45:31.199Z,50.80
2018-02-15T04:47:58.694Z,50.70
2018-02-15T04:50:26.196Z,50.60
2018-02-15T04:52:54.085Z,50.70
2018-02-15T04:55:21.573Z,50.50
2018-02-15T04:57:49.087Z,50.30
2018-02-15T05:00:16.708Z,50.30
2018-02-15T05:02:45.713Z,49.20
2018-02-15T05:05:13.499Z,49.20
2018-02-15T05:07:41.033Z,49.70
2018-02-15T05:10:08.704Z,49.60
2018-02-15T05:12:36.310Z,49.90
2018-02-15T05:15:03.821Z,49.80
2018-02-15T05:17:31.709Z,49.70
2018-02-15T05:19:59.385Z,49.30
2018-02-15T05:22:26.879Z,49.10
2018-02-15T05:24:54.386Z,48.70
2018-02-15T05:27:22.077Z,49.60
2018-02-15T05:29:49.923Z,48.80
2018-02-15T05:32:17.420Z,49.00
2018-02-15T05:34:45.037Z,48.80
2018-02-15T05:37:12.918Z,49.20
2018-02-15T05:39:40.544Z,49.10
2018-02-15T05:42:08.153Z,48.60
2018-02-15T05:44:35.700Z,48.80
2018-02-15T05:47:03.239Z,48.60
2018-02-15T05:49:31.028Z,48.20
2018-02-15T05:51:58.522Z,48.50
2018-02-15T05:54:26.027Z,48.20
2018-02-15T05:56:53.872Z,48.40
2018-02-15T05:59:22.348Z,48.50
2018-02-15T06:01:50.892Z,48.80
2018-02-15T06:04:18.423Z,48.70
2018-02-15T06:06:45.962Z,48.80
2018-02-15T06:09:13.495Z,49.00
2018-02-15T06:11:41.073Z,49.00
2018-02-15T06:14:09.340Z,48.80
2018-02-15T06:16:37.292Z,48.80
2018-02-15T06:19:04.801Z,48.70
2018-02-15T06:21:32.550Z,49.10
2018-02-15T06:24:00.270Z,49.30
2018-02-15T06:26:27.764Z,48.50
2018-02-15T06:28:56.120Z,48.70
2018-02-15T06:31:23.905Z,48.70
2018-02-15T06:33:52.170Z,48.60
2018-02-15T06:36:20.448Z,48.90
2018-02-15T06:38:49.062Z,49.00
2018-02-15T06:41:16.696Z,48.90
2018-02-15T06:43:44.211Z,48.50
2018-02-15T06:46:12.237Z,48.50
2018-02-15T06:48:39.951Z,48.80
2018-02-15T06:51:07.640Z,48.90
2018-02-15T06:53:36.473Z,48.70
2018-02-15T06:56:04.143Z,48.60
2018-02-15T06:58:31.660Z,49.10
2018-02-15T07:01:00.557Z,48.40
2018-02-15T07:03:28.339Z,48.40
2018-02-15T07:05:55.980Z,48.90
2018-02-15T07:08:24.105Z,49.00
2018-02-15T07:10:51.816Z,48.90
2018-02-15T07:13:19.446Z,48.80
2018-02-15T07:15:47.467Z,48.30
2018-02-15T07:18:15.576Z,48.10
2018-02-15T07:20:43.963Z,48.10
2018-02-15T07:23:12.205Z,48.10
2018-02-15T07:25:40.148Z,48.10
2018-02-15T07:28:07.746Z,48.20
2018-02-15T07:30:35.264Z,48.20
2018-02-15T07:33:02.780Z,48.30
2018-02-15T07:35:30.270Z,48.30
2018-02-15T07:37:58.556Z,48.50
2018-02-15T07:40:26.061Z,48.50
2018-02-15T07:42:53.571Z,48.40
2018-02-15T07:45:21.227Z,48.70
2018-02-15T07:47:48.761Z,49.00
2018-02-15T07:50:16.258Z,49.10
2018-02-15T07:52:43.760Z,49.80
2018-02-15T07:55:11.300Z,49.80
2018-02-15T07:57:38.869Z,50.30
2018-02-15T08:00:06.507Z,51.40
2018-02-15T08:02:34.243Z,52.10
2018-02-15T08:05:01.726Z,53.50
2018-02-15T08:07:29.239Z,53.80
2018-02-15T08:09:57.625Z,55.70
2018-02-15T08:12:26.002Z,56.70
2018-02-15T08:14:53.521Z,56.60
2018-02-15T08:17:21.032Z,58.70
2018-02-15T08:19:48.548Z,59.50
2018-02-15T08:22:16.059Z,60.10
2018-02-15T08:24:43.563Z,60.30
2018-02-15T08:27:11.082Z,61.10
2018-02-15T08:29:38.690Z,61.80
2018-02-15T08:32:06.298Z,62.00
2018-02-15T08:34:33.814Z,62.20
2018-02-15T08:37:01.324Z,63.60
2018-02-15T08:39:28.824Z,64.70
2018-02-15T08:41:56.310Z,65.90
2018-02-15T08:44:23.841Z,67.50
2018-02-15T08:46:52.124Z,69.40
2018-02-15T08:49:20.382Z,69.90
2018-02-15T08:51:47.907Z,69.90
2018-02-15T08:54:15.415Z,71.10
2018-02-15T08:56:43.677Z,72.80
2018-02-15T08:59:11.222Z,72.70
2018-02-15T09:01:38.744Z,72.80
2018-02-15T09:04:06.287Z,72.50
2018-02-15T09:06:33.813Z,72.60
2018-02-15T09:09:01.312Z,73.20
2018-02-15T09:11:28.819Z,72.90
2018-02-15T09:13:56.332Z,73.20
2018-02-15T09:16:23.831Z,73.60
2018-02-15T09:18:51.334Z,74.00
2018-02-15T09:21:18.958Z,74.30
2018-02-15T09:23:46.456Z,74.10
2018-02-15T09:26:13.970Z,74.30
2018-02-15T09:28:41.479Z,74.60
2018-02-15T09:31:09.152Z,75.00
2018-02-15T09:33:36.710Z,75.20
2018-02-15T09:36:04.240Z,76.50
2018-02-15T09:38:31.838Z,76.40
2018-02-15T09:40:59.343Z,76.70
2018-02-15T09:43:26.939Z,77.40
2018-02-15T09:45:54.434Z,77.00
2018-02-15T09:48:21.939Z,77.30
2018-02-15T09:50:49.456Z,77.40
2018-02-15T09:53:16.956Z,76.90
2018-02-15T09:55:44.468Z,77.50
2018-02-15T09:58:12.010Z,77.70
2018-02-15T10:00:39.534Z,77.50
2018-02-15T10:03:07.042Z,77.70
2018-02-15T10:05:34.559Z,78.10
2018-02-15T10:08:02.067Z,77.80
2018-02-15T10:10:29.542Z,77.70
2018-02-15T10:12:57.831Z,78.60
2018-02-15T10:15:26.144Z,78.60
2018-02-15T10:17:53.664Z,78.60
2018-02-15T10:20:21.206Z,79.00
2018-02-15T10:22:49.482Z,80.70
2018-02-15T10:25:17.755Z,80.30
2018-02-15T10:27:45.388Z,80.40
2018-02-15T10:30:13.169Z,81.00
2018-02-15T10:32:40.677Z,81.60
2018-02-15T10:35:08.185Z,81.40
2018-02-15T10:37:35.692Z,82.40
2018-02-15T10:40:03.197Z,82.20
2018-02-15T10:42:30.716Z,82.50
2018-02-15T10:44:58.216Z,83.40
2018-02-15T10:47:26.503Z,83.90
2018-02-15T10:49:54.924Z,84.20
2018-02-15T10:52:22.425Z,84.20
2018-02-15T10:54:49.994Z,84.40
2018-02-15T10:57:17.530Z,84.40
2018-02-15T10:59:45.048Z,85.20
2018-02-15T11:02:18.554Z,85.30
2018-02-15T11:04:51.743Z,85.10
2018-02-15T11:07:19.264Z,85.40
2018-02-15T11:09:46.790Z,85.80
2018-02-15T11:12:14.305Z,85.80
2018-02-15T11:14:42.599Z,86.70
2018-02-15T11:17:10.107Z,86.70
2018-02-15T11:19:38.753Z,87.20
2018-02-15T11:22:06.275Z,87.40
2018-02-15T11:24:33.787Z,87.60
2018-02-15T11:27:01.309Z,88.40
2018-02-15T11:29:28.855Z,88.30
2018-02-15T11:31:56.334Z,88.10
2018-02-15T11:34:23.862Z,88.00
2018-02-15T11:36:51.405Z,88.40
2018-02-15T11:39:18.915Z,88.70
2018-02-15T11:41:46.496Z,88.70
2018-02-15T11:44:14.024Z,88.70
2018-02-15T11:46:41.544Z,88.50
2018-02-15T11:49:09.065Z,88.40
2018-02-15T11:51:36.591Z,88.50
2018-02-15T11:54:04.088Z,89.00
2018-02-15T11:56:31.609Z,89.30
2018-02-15T11:58:59.129Z,89.30
2018-02-15T12:01:26.620Z,89.30
2018-02-15T12:03:54.304Z,89.30
2018-02-15T12:06:21.845Z,88.90
2018-02-15T12:08:49.340Z,88.90
2018-02-15T12:11:16.861Z,89.00
2018-02-15T12:13:46.714Z,89.10
2018-02-15T12:16:14.205Z,90.00
2018-02-15T12:18:42.478Z,89.30
2018-02-15T12:21:10.071Z,89.30
2018-02-15T12:23:37.526Z,89.10
2018-02-15T12:26:05.034Z,89.50
2018-02-15T12:28:32.559Z,89.50
2018-02-15T12:31:00.046Z,89.70
2018-02-15T12:33:27.549Z,89.80
2018-02-15T12:35:55.083Z,90.00
2018-02-15T12:38:23.351Z,90.00
2018-02-15T12:40:51.721Z,90.00
2018-02-15T12:43:19.209Z,90.00
2018-02-15T12:45:46.702Z,90.10
2018-02-15T12:48:14.218Z,90.40
2018-02-15T12:50:41.764Z,90.40
2018-02-15T12:53:09.262Z,90.50
2018-02-15T12:55:36.791Z,90.50
2018-02-15T12:58:05.089Z,90.60
2018-02-15T13:37:30.474Z,90.90
2018-02-15T13:39:57.997Z,91.00
2018-02-15T13:42:25.515Z,91.20
2018-02-15T13:44:53.079Z,91.10
2018-02-15T13:47:21.393Z,91.10
2018-02-15T13:49:48.887Z,91.00
2018-02-15T13:52:16.424Z,91.20
2018-02-15T13:54:44.016Z,91.30
2018-02-15T13:57:11.523Z,91.30
2018-02-15T13:59:39.080Z,91.30
2018-02-15T14:02:06.582Z,91.20
2018-02-15T14:04:34.094Z,91.40
2018-02-15T14:07:01.618Z,91.30
2018-02-15T14:09:29.128Z,91.30
2018-02-15T14:11:57.637Z,91.40
2018-02-15T14:14:25.151Z,91.40
2018-02-15T14:16:52.661Z,91.50
2018-02-15T14:19:20.211Z,91.70
2018-02-15T14:21:47.735Z,91.60
2018-02-15T14:24:15.237Z,91.80
2018-02-15T14:26:42.757Z,91.70
2018-02-15T14:29:10.255Z,91.70
2018-02-15T14:31:37.757Z,91.70
2018-02-15T14:34:05.251Z,91.70
2018-02-15T14:36:32.770Z,91.60
2018-02-15T14:39:00.266Z,91.70
2018-02-15T14:41:27.788Z,91.70
2018-02-15T14:43:55.643Z,91.90
2018-02-15T14:46:23.147Z,91.90
2018-02-15T14:48:50.668Z,92.00
2018-02-15T14:51:18.191Z,92.10
2018-02-15T14:53:46.505Z,92.10
2018-02-15T14:56:13.993Z,92.10
2018-02-15T14:58:41.518Z,92.10
2018-02-15T15:01:09.009Z,92.10
2018-02-15T15:03:36.504Z,92.20
2018-02-15T15:06:04.804Z,91.90
2018-02-15T15:08:32.304Z,91.90
2018-02-15T15:10:59.814Z,92.00
2018-02-15T15:13:27.378Z,92.00
2018-02-15T15:15:54.917Z,91.90
2018-02-15T15:18:23.203Z,92.00
2018-02-15T15:20:51.493Z,92.00
2018-02-15T15:23:19.006Z,92.00
2018-02-15T15:25:46.506Z,92.10
2018-02-15T15:28:14.025Z,92.20
2018-02-15T15:30:41.631Z,92.30
2018-02-15T15:33:09.692Z,92.50
2018-02-15T15:35:37.243Z,92.30
2018-02-15T15:38:05.497Z,92.50
2018-02-15T15:40:32.989Z,92.60
2018-02-15T15:43:00.502Z,92.50
2018-02-15T15:45:28.074Z,92.70
2018-02-15T15:47:56.339Z,92.90
2018-02-15T15:50:23.855Z,92.90
2018-02-15T15:52:51.415Z,93.10
2018-02-15T15:55:18.925Z,93.00
2018-02-15T15:57:47.527Z,93.10
2018-02-15T16:00:15.156Z,93.10
2018-02-15T16:02:42.687Z,93.20
2018-02-15T16:05:10.631Z,93.10
2018-02-15T16:07:38.112Z,93.40
2018-02-15T16:10:05.623Z,93.40
2018-02-15T16:12:34.344Z,93.40
2018-02-15T16:15:02.977Z,93.50
2018-02-15T16:17:30.478Z,93.60
2018-02-15T16:19:58.013Z,93.60
2018-02-15T16:22:26.177Z,93.70
2018-02-15T16:24:54.460Z,93.80
2018-02-15T16:27:21.976Z,93.80
2018-02-15T16:29:49.473Z,94.10
2018-02-15T16:32:17.746Z,94.00
2018-02-15T16:34:46.116Z,94.10
2018-02-15T16:37:14.378Z,94.20
2018-02-15T16:39:41.916Z,94.10
2018-02-15T16:42:09.436Z,94.20
2018-02-15T16:44:36.967Z,94.30
2018-02-15T16:47:05.244Z,94.40
2018-02-15T16:49:33.540Z,94.40
2018-02-15T16:52:01.067Z,94.40
2018-02-15T16:54:28.578Z,94.50
2018-02-15T16:56:57.007Z,94.50
2018-02-15T16:59:24.548Z,94.40
2018-02-15T17:01:52.064Z,94.60
2018-02-15T17:04:19.982Z,94.80
2018-02-15T17:06:47.496Z,94.80
2018-02-15T17:09:15.012Z,94.70
2018-02-15T17:11:42.528Z,94.70
2018-02-15T17:14:10.184Z,94.60
2018-02-15T17:16:37.688Z,94.70
2018-02-15T17:19:05.983Z,94.70
2018-02-15T17:21:34.005Z,94.70
2018-02-15T17:24:01.517Z,94.80
2018-02-15T17:26:29.875Z,94.90
2018-02-15T17:28:58.360Z,94.90
2018-02-15T17:31:26.630Z,94.90
2018-02-15T17:33:54.950Z,94.80
2018-02-15T17:36:22.477Z,94.80
2018-02-15T17:38:50.754Z,95.00
2018-02-15T17:41:18.719Z,95.00
2018-02-15T17:43:46.213Z,95.00
2018-02-15T17:46:13.719Z,94.90
2018-02-15T17:48:42.107Z,95.10
2018-02-15T17:51:10.385Z,95.10
2018-02-15T17:53:38.735Z,95.10
2018-02-15T17:56:06.282Z,95.10
2018-02-15T17:58:33.813Z,95.10
2018-02-15T18:01:01.340Z,95.10
2018-02-15T18:03:29.639Z,95.10
2018-02-15T18:05:57.159Z,95.00
2018-02-15T18:08:25.502Z,95.10
2018-02-15T18:10:53.069Z,95.10
2018-02-15T18:13:20.612Z,95.10
2018-02-15T18:15:48.107Z,94.80
2018-02-15T18:18:16.414Z,94.90
2018-02-15T18:20:43.941Z,94.90
2018-02-15T18:23:12.240Z,95.10
2018-02-15T18:25:39.829Z,95.00
2018-02-15T18:28:07.374Z,95.10
2018-02-15T18:30:34.909Z,95.10
2018-02-15T18:33:02.494Z,95.20
2018-02-15T18:35:30.018Z,95.10
2018-02-15T18:37:58.360Z,95.50
2018-02-15T18:40:26.316Z,95.10
2018-02-15T18:42:53.852Z,95.40
2018-02-15T18:45:21.417Z,95.20
2018-02-15T18:47:48.957Z,95.20
2018-02-15T18:50:17.147Z,95.20
2018-02-15T18:52:44.698Z,95.10
2018-02-15T18:55:12.268Z,95.10
2018-02-15T18:57:39.811Z,95.10
2018-02-15T19:00:07.402Z,94.90
2018-02-15T19:02:34.953Z,94.90
2018-02-15T19:05:02.524Z,95.00
2018-02-15T19:07:30.623Z,94.90
2018-02-15T19:09:58.157Z,94.70
2018-02-15T19:12:25.722Z,94.80
2018-02-15T19:14:53.251Z,94.80
2018-02-15T19:17:20.858Z,94.70
2018-02-15T19:19:48.416Z,94.60
2018-02-15T19:22:15.956Z,94.60
2018-02-15T19:24:43.539Z,94.60
2018-02-15T19:27:11.104Z,94.60
2018-02-15T19:29:38.673Z,94.60
2018-02-15T19:32:07.023Z,94.50
2018-02-15T19:34:34.578Z,94.50
2018-02-15T19:37:02.143Z,94.40
2018-02-15T19:39:29.723Z,94.30
2018-02-15T19:41:58.022Z,94.20
2018-02-15T19:44:25.570Z,94.20
2018-02-15T19:46:53.948Z,94.20
2018-02-15T19:49:21.562Z,94.20
2018-02-15T19:51:49.143Z,94.20
2018-02-15T19:54:16.838Z,94.20
2018-02-15T19:56:44.431Z,94.10
2018-02-15T19:59:11.996Z,94.10
2018-02-15T20:01:39.585Z,93.90
2018-02-15T20:04:09.129Z,93.90
2018-02-15T20:06:36.903Z,93.90
2018-02-15T20:09:04.500Z,93.90
2018-02-15T20:11:32.080Z,93.80
2018-02-15T20:13:59.642Z,93.90
2018-02-15T20:16:27.238Z,93.90
2018-02-15T20:18:54.769Z,93.80
2018-02-15T20:21:23.091Z,93.80
2018-02-15T20:23:50.787Z,93.80
2018-02-15T20:26:24.044Z,93.70
2018-02-15T20:28:51.647Z,93.80
2018-02-15T20:31:19.197Z,93.80
2018-02-15T20:33:48.316Z,93.60
2018-02-15T20:36:16.648Z,93.50
2018-02-15T20:38:50.736Z,93.40
2018-02-15T20:41:18.524Z,93.30
2018-02-15T20:43:46.059Z,93.30
2018-02-15T20:46:13.610Z,93.10
2018-02-15T20:48:41.299Z,93.10
2018-02-15T20:51:14.548Z,93.00
2018-02-15T20:53:48.477Z,92.90
2018-02-15T20:56:16.064Z,93.20
2018-02-15T20:58:44.016Z,92.80
2018-02-15T21:01:12.604Z,92.80
2018-02-15T21:03:40.215Z,92.40
2018-02-15T21:06:07.823Z,92.60
2018-02-15T21:08:35.456Z,92.70
2018-02-15T21:11:03.447Z,92.70
2018-02-15T21:13:31.364Z,92.70
2018-02-15T21:15:59.743Z,92.80
2018-02-15T21:18:27.300Z,92.70
2018-02-15T21:20:55.990Z,92.70
2018-02-15T21:23:23.609Z,92.70
2018-02-15T21:25:51.226Z,92.80
2018-02-15T21:28:19.172Z,92.70
2018-02-15T21:30:47.532Z,92.80
2018-02-15T21:33:15.192Z,92.80
2018-02-15T21:35:43.989Z,92.90
2018-02-15T21:38:11.558Z,92.80
2018-02-15T21:40:39.892Z,93.00
2018-02-15T21:43:07.413Z,93.40
2018-02-15T21:45:34.914Z,93.10
2018-02-15T21:48:02.771Z,93.00
2018-02-15T21:50:30.424Z,93.00
2018-02-15T21:52:57.925Z,93.00
2018-02-15T21:55:25.427Z,93.10
2018-02-15T21:57:52.940Z,93.10
2018-02-15T22:00:20.944Z,93.00
2018-02-15T22:02:48.473Z,93.00
2018-02-15T22:05:15.963Z,93.00
2018-02-15T22:07:43.835Z,93.00
2018-02-15T22:10:11.348Z,93.00
2018-02-15T22:12:38.848Z,93.00
2018-02-15T22:15:06.344Z,92.90
2018-02-15T22:17:33.861Z,92.90
2018-02-15T22:20:01.857Z,92.80
2018-02-15T22:22:29.376Z,92.70
2018-02-15T22:24:57.639Z,92.60
2018-02-15T22:27:25.416Z,92.60
2018-02-15T22:29:53.702Z,92.40
2018-02-15T22:32:21.227Z,92.40
2018-02-15T22:34:48.761Z,92.40
2018-02-15T22:37:16.260Z,92.30
2018-02-15T22:39:44.868Z,92.10
2018-02-15T22:42:12.365Z,92.10
2018-02-15T22:44:39.859Z,92.10
2018-02-15T22:47:08.171Z,91.90
2018-02-15T22:49:35.676Z,91.90
2018-02-15T22:52:03.570Z,91.80
2018-02-15T22:54:31.075Z,91.80
2018-02-15T22:56:58.586Z,92.10
2018-02-15T22:59:26.858Z,91.90
2018-02-15T23:01:55.160Z,91.90
2018-02-15T23:04:22.945Z,91.90
2018-02-15T23:06:50.442Z,91.90
2018-02-15T23:09:18.003Z,91.90
2018-02-15T23:11:46.275Z,91.70
2018-02-15T23:14:13.772Z,91.70
2018-02-15T23:16:41.609Z,92.10
2018-02-15T23:19:09.876Z,91.40
2018-02-15T23:21:37.380Z,91.40
2018-02-15T23:24:04.883Z,91.40
2018-02-15T23:26:32.409Z,91.40
2018-02-15T23:29:00.243Z,91.20
2018-02-15T23:31:27.730Z,91.20
2018-02-15T23:33:55.234Z,91.10
2018-02-15T23:36:23.021Z,91.10
2018-02-15T23:38:50.559Z,91.10
2018-02-15T23:41:18.105Z,91.00
2018-02-15T23:43:45.609Z,91.10
2018-02-15T23:46:13.097Z,91.00
2018-02-15T23:48:40.871Z,91.20
2018-02-15T23:51:08.358Z,91.20
2018-02-15T23:53:36.606Z,91.10
2018-02-15T23:56:04.122Z,91.10
2018-02-15T23:58:31.675Z,91.20
